sensor_id;sensor_type;location;lat;lon;timestamp;temperature;humidity
35668;DHT22;22158;59.280;17.806;2023-04-07T05:01:21;1.40;99.90
35668;DHT22;22158;59.280;17.806;2023-04-07T05:03:47;1.50;99.90
35668;DHT22;22158;59.280;17.806;2023-04-07T05:06:12;1.50;99.90
35668;DHT22;22158;59.280;17.806;2023-04-07T05:08:38;1.50;99.90
35668;DHT22;22158;59.280;17.806;2023-04-07T05:11:04;1.50;99.90
35668;DHT22;22158;59.280;17.806;2023-04-07T05:13:29;1.50;99.90
35668;DHT22;22158;59.280;17.806;2023-04-07T05:15:55;1.50;99.90
35668;DHT22;22158;59.280;17.806;2023-04-07T05:18:21;1.60;99.90
35668;DHT22;22158;59.280;17.806;2023-04-07T05:20:48;1.60;99.90
35668;DHT22;22158;59.280;17.806;2023-04-07T05:23:13;1.50;99.90
35668;DHT22;22158;59.280;17.806;2023-04-07T05:25:39;1.60;99.90
35668;DHT22;22158;59.280;17.806;2023-04-07T05:28:05;1.60;99.90
35668;DHT22;22158;59.280;17.806;2023-04-07T05:30:31;1.60;99.90
35668;DHT22;22158;59.280;17.806;2023-04-07T05:32:56;1.60;99.90
35668;DHT22;22158;59.280;17.806;2023-04-07T05:35:22;1.60;99.90
35668;DHT22;22158;59.280;17.806;2023-04-07T05:37:48;1.60;99.90
35668;DHT22;22158;59.280;17.806;2023-04-07T05:40:13;1.60;99.90
35668;DHT22;22158;59.280;17.806;2023-04-07T05:42:40;1.60;99.90
35668;DHT22;22158;59.280;17.806;2023-04-07T05:45:06;1.60;99.90
35668;DHT22;22158;59.280;17.806;2023-04-07T05:47:32;1.50;99.90
35668;DHT22;22158;59.280;17.806;2023-04-07T05:49:57;1.60;99.90
35668;DHT22;22158;59.280;17.806;2023-04-07T05:52:23;1.50;99.90
35668;DHT22;22158;59.280;17.806;2023-04-07T05:54:48;1.60;99.90
35668;DHT22;22158;59.280;17.806;2023-04-07T05:57:14;1.50;99.90
35668;DHT22;22158;59.280;17.806;2023-04-07T05:59:40;1.50;99.90
35668;DHT22;22158;59.280;17.806;2023-04-07T06:02:05;1.50;99.90
35668;DHT22;22158;59.280;17.806;2023-04-07T06:04:31;1.50;99.90
35668;DHT22;22158;59.280;17.806;2023-04-07T06:07:02;1.60;99.90
35668;DHT22;22158;59.280;17.806;2023-04-07T06:09:28;1.60;99.90
35668;DHT22;22158;59.280;17.806;2023-04-07T06:11:53;1.60;99.90
35668;DHT22;22158;59.280;17.806;2023-04-07T06:14:21;1.60;99.90
35668;DHT22;22158;59.280;17.806;2023-04-07T06:16:46;1.60;99.90
35668;DHT22;22158;59.280;17.806;2023-04-07T06:19:12;1.60;99.90
35668;DHT22;22158;59.280;17.806;2023-04-07T06:21:37;1.60;99.90
35668;DHT22;22158;59.280;17.806;2023-04-07T06:24:04;1.60;99.90
35668;DHT22;22158;59.280;17.806;2023-04-07T06:26:31;1.60;99.90
35668;DHT22;22158;59.280;17.806;2023-04-07T06:28:57;1.70;99.90
35668;DHT22;22158;59.280;17.806;2023-04-07T06:31:23;1.70;99.90
35668;DHT22;22158;59.280;17.806;2023-04-07T06:33:49;1.70;99.90
35668;DHT22;22158;59.280;17.806;2023-04-07T06:36:14;1.70;99.90
35668;DHT22;22158;59.280;17.806;2023-04-07T06:38:40;1.70;99.90
35668;DHT22;22158;59.280;17.806;2023-04-07T06:41:06;1.80;99.90
35668;DHT22;22158;59.280;17.806;2023-04-07T06:43:36;1.80;99.90
35668;DHT22;22158;59.280;17.806;2023-04-07T06:46:01;1.80;99.90
35668;DHT22;22158;59.280;17.806;2023-04-07T06:48:27;1.90;99.90
35668;DHT22;22158;59.280;17.806;2023-04-07T06:50:52;1.90;99.90
35668;DHT22;22158;59.280;17.806;2023-04-07T06:53:18;1.90;99.90
35668;DHT22;22158;59.280;17.806;2023-04-07T06:55:43;1.90;99.90
35668;DHT22;22158;59.280;17.806;2023-04-07T06:58:09;2.00;99.90
35668;DHT22;22158;59.280;17.806;2023-04-07T07:00:36;2.00;99.90
35668;DHT22;22158;59.280;17.806;2023-04-07T07:03:01;2.00;99.90
35668;DHT22;22158;59.280;17.806;2023-04-07T07:05:27;2.00;99.90
35668;DHT22;22158;59.280;17.806;2023-04-07T07:07:53;2.10;99.90
35668;DHT22;22158;59.280;17.806;2023-04-07T07:10:18;2.10;99.90
35668;DHT22;22158;59.280;17.806;2023-04-07T07:12:48;2.10;99.90
35668;DHT22;22158;59.280;17.806;2023-04-07T07:15:14;2.20;99.90
35668;DHT22;22158;59.280;17.806;2023-04-07T07:17:39;2.20;99.90
35668;DHT22;22158;59.280;17.806;2023-04-07T07:20:06;2.20;99.90
35668;DHT22;22158;59.280;17.806;2023-04-07T07:22:32;2.30;99.90
35668;DHT22;22158;59.280;17.806;2023-04-07T07:24:57;2.30;99.90
35668;DHT22;22158;59.280;17.806;2023-04-07T07:27:23;2.40;99.90
35668;DHT22;22158;59.280;17.806;2023-04-07T07:29:48;2.40;99.90
35668;DHT22;22158;59.280;17.806;2023-04-07T07:32:14;2.40;99.90
35668;DHT22;22158;59.280;17.806;2023-04-07T07:34:39;2.50;99.90
35668;DHT22;22158;59.280;17.806;2023-04-07T07:37:05;2.50;99.90
35668;DHT22;22158;59.280;17.806;2023-04-07T07:39:31;2.50;99.90
35668;DHT22;22158;59.280;17.806;2023-04-07T07:41:56;2.60;99.90
35668;DHT22;22158;59.280;17.806;2023-04-07T07:44:22;2.60;99.90
35668;DHT22;22158;59.280;17.806;2023-04-07T07:46:51;2.60;99.90
35668;DHT22;22158;59.280;17.806;2023-04-07T07:49:16;2.60;99.90
35668;DHT22;22158;59.280;17.806;2023-04-07T07:51:42;2.50;99.90
35668;DHT22;22158;59.280;17.806;2023-04-07T07:54:07;2.60;99.90
35668;DHT22;22158;59.280;17.806;2023-04-07T07:56:34;2.60;99.90
35668;DHT22;22158;59.280;17.806;2023-04-07T07:59:00;2.60;99.90
35668;DHT22;22158;59.280;17.806;2023-04-07T08:01:25;2.70;99.90
35668;DHT22;22158;59.280;17.806;2023-04-07T08:03:51;2.70;99.90
35668;DHT22;22158;59.280;17.806;2023-04-07T08:06:17;2.80;99.90
35668;DHT22;22158;59.280;17.806;2023-04-07T08:08:42;2.80;99.90
35668;DHT22;22158;59.280;17.806;2023-04-07T08:11:08;2.80;99.90
35668;DHT22;22158;59.280;17.806;2023-04-07T08:13:34;2.80;99.90
35668;DHT22;22158;59.280;17.806;2023-04-07T08:15:59;2.70;99.90
35668;DHT22;22158;59.280;17.806;2023-04-07T08:18:25;2.80;99.90
35668;DHT22;22158;59.280;17.806;2023-04-07T08:20:51;2.80;99.90
35668;DHT22;22158;59.280;17.806;2023-04-07T08:23:17;2.80;99.90
35668;DHT22;22158;59.280;17.806;2023-04-07T08:25:42;2.80;99.90
35668;DHT22;22158;59.280;17.806;2023-04-07T08:28:08;2.80;99.90
35668;DHT22;22158;59.280;17.806;2023-04-07T08:30:33;2.80;99.90
35668;DHT22;22158;59.280;17.806;2023-04-07T08:32:59;2.80;99.90
35668;DHT22;22158;59.280;17.806;2023-04-07T08:35:25;2.80;99.90
35668;DHT22;22158;59.280;17.806;2023-04-07T08:37:51;2.90;99.90
35668;DHT22;22158;59.280;17.806;2023-04-07T08:40:16;2.90;99.90
35668;DHT22;22158;59.280;17.806;2023-04-07T08:42:45;2.90;99.90
35668;DHT22;22158;59.280;17.806;2023-04-07T08:45:12;2.90;99.90
35668;DHT22;22158;59.280;17.806;2023-04-07T08:47:39;3.00;99.90
35668;DHT22;22158;59.280;17.806;2023-04-07T08:50:08;3.00;99.90
35668;DHT22;22158;59.280;17.806;2023-04-07T08:52:55;3.10;99.90
35668;DHT22;22158;59.280;17.806;2023-04-07T08:55:22;3.10;99.90
35668;DHT22;22158;59.280;17.806;2023-04-07T08:57:47;3.20;99.90
35668;DHT22;22158;59.280;17.806;2023-04-07T09:00:13;3.30;99.90
35668;DHT22;22158;59.280;17.806;2023-04-07T09:02:41;3.30;99.90
35668;DHT22;22158;59.280;17.806;2023-04-07T09:05:11;3.40;99.90
35668;DHT22;22158;59.280;17.806;2023-04-07T09:07:39;3.40;99.90
35668;DHT22;22158;59.280;17.806;2023-04-07T09:10:06;3.40;99.90
35668;DHT22;22158;59.280;17.806;2023-04-07T09:12:32;3.40;99.90
35668;DHT22;22158;59.280;17.806;2023-04-07T09:14:58;3.40;99.90
35668;DHT22;22158;59.280;17.806;2023-04-07T09:17:25;3.40;99.90
35668;DHT22;22158;59.280;17.806;2023-04-07T09:19:54;3.50;99.90
35668;DHT22;22158;59.280;17.806;2023-04-07T09:22:39;3.50;99.90
35668;DHT22;22158;59.280;17.806;2023-04-07T09:25:23;3.50;99.90
35668;DHT22;22158;59.280;17.806;2023-04-07T09:27:59;3.50;99.90
35668;DHT22;22158;59.280;17.806;2023-04-07T09:30:27;3.60;99.90
35668;DHT22;22158;59.280;17.806;2023-04-07T09:32:53;3.60;99.90
35668;DHT22;22158;59.280;17.806;2023-04-07T09:35:19;3.60;99.90
35668;DHT22;22158;59.280;17.806;2023-04-07T09:40:29;3.60;99.90
35668;DHT22;22158;59.280;17.806;2023-04-07T09:42:54;3.60;99.90
35668;DHT22;22158;59.280;17.806;2023-04-07T09:45:26;3.60;99.90
35668;DHT22;22158;59.280;17.806;2023-04-07T09:47:52;3.60;99.90
35668;DHT22;22158;59.280;17.806;2023-04-07T09:50:37;3.60;99.90
35668;DHT22;22158;59.280;17.806;2023-04-07T09:53:04;3.60;99.90
35668;DHT22;22158;59.280;17.806;2023-04-07T09:55:30;3.60;99.90
35668;DHT22;22158;59.280;17.806;2023-04-07T09:57:56;3.60;99.90
35668;DHT22;22158;59.280;17.806;2023-04-07T10:00:22;3.70;99.90
35668;DHT22;22158;59.280;17.806;2023-04-07T10:02:48;3.70;99.90
35668;DHT22;22158;59.280;17.806;2023-04-07T10:05:16;3.70;99.90
35668;DHT22;22158;59.280;17.806;2023-04-07T10:07:45;3.60;99.90
35668;DHT22;22158;59.280;17.806;2023-04-07T10:10:11;3.60;99.90
35668;DHT22;22158;59.280;17.806;2023-04-07T10:12:37;3.60;99.90
35668;DHT22;22158;59.280;17.806;2023-04-07T10:15:03;3.60;99.90
35668;DHT22;22158;59.280;17.806;2023-04-07T10:17:30;3.60;99.90
35668;DHT22;22158;59.280;17.806;2023-04-07T10:20:00;3.60;99.90
35668;DHT22;22158;59.280;17.806;2023-04-07T10:22:27;3.70;99.90
35668;DHT22;22158;59.280;17.806;2023-04-07T10:25:01;3.70;99.90
35668;DHT22;22158;59.280;17.806;2023-04-07T10:27:34;3.70;99.90
35668;DHT22;22158;59.280;17.806;2023-04-07T10:30:03;3.70;99.90
35668;DHT22;22158;59.280;17.806;2023-04-07T10:32:29;3.70;99.90
35668;DHT22;22158;59.280;17.806;2023-04-07T10:34:56;3.70;99.90
35668;DHT22;22158;59.280;17.806;2023-04-07T10:37:23;3.80;99.90
35668;DHT22;22158;59.280;17.806;2023-04-07T10:45:07;3.80;99.90
35668;DHT22;22158;59.280;17.806;2023-04-07T10:47:34;3.80;99.90
35668;DHT22;22158;59.280;17.806;2023-04-07T10:50:17;3.80;99.90
35668;DHT22;22158;59.280;17.806;2023-04-07T10:52:44;3.70;99.90
35668;DHT22;22158;59.280;17.806;2023-04-07T10:55:33;3.70;99.90
35668;DHT22;22158;59.280;17.806;2023-04-07T10:58:24;3.70;99.90
35668;DHT22;22158;59.280;17.806;2023-04-07T11:03:22;3.60;99.90
35668;DHT22;22158;59.280;17.806;2023-04-07T11:05:49;3.50;99.90
35668;DHT22;22158;59.280;17.806;2023-04-07T11:08:30;3.50;99.90
35668;DHT22;22158;59.280;17.806;2023-04-07T11:10:56;3.50;99.90
35668;DHT22;22158;59.280;17.806;2023-04-07T11:13:21;3.50;99.90
35668;DHT22;22158;59.280;17.806;2023-04-07T11:15:49;3.60;99.90
35668;DHT22;22158;59.280;17.806;2023-04-07T11:18:18;3.60;99.90
35668;DHT22;22158;59.280;17.806;2023-04-07T11:20:52;3.60;99.90
35668;DHT22;22158;59.280;17.806;2023-04-07T11:23:20;3.60;99.90
35668;DHT22;22158;59.280;17.806;2023-04-07T11:25:47;3.60;99.90
35668;DHT22;22158;59.280;17.806;2023-04-07T11:28:14;3.60;99.90
35668;DHT22;22158;59.280;17.806;2023-04-07T11:31:06;3.70;99.90
35668;DHT22;22158;59.280;17.806;2023-04-07T11:33:32;3.70;99.90
35668;DHT22;22158;59.280;17.806;2023-04-07T11:36:02;3.70;99.90
35668;DHT22;22158;59.280;17.806;2023-04-07T11:38:29;3.70;99.90
35668;DHT22;22158;59.280;17.806;2023-04-07T11:40:55;3.70;99.90
35668;DHT22;22158;59.280;17.806;2023-04-07T11:43:26;3.70;99.90
35668;DHT22;22158;59.280;17.806;2023-04-07T11:46:12;3.80;99.90
35668;DHT22;22158;59.280;17.806;2023-04-07T11:48:40;3.90;99.90
35668;DHT22;22158;59.280;17.806;2023-04-07T11:51:17;3.90;99.90
35668;DHT22;22158;59.280;17.806;2023-04-07T11:53:43;4.00;99.90
35668;DHT22;22158;59.280;17.806;2023-04-07T11:56:11;4.00;99.90
35668;DHT22;22158;59.280;17.806;2023-04-07T11:58:51;4.10;99.90
35668;DHT22;22158;59.280;17.806;2023-04-07T12:01:17;4.10;99.90
35668;DHT22;22158;59.280;17.806;2023-04-07T12:04:03;4.10;99.90
35668;DHT22;22158;59.280;17.806;2023-04-07T12:06:34;4.10;99.90
35668;DHT22;22158;59.280;17.806;2023-04-07T12:09:01;4.10;99.90
35668;DHT22;22158;59.280;17.806;2023-04-07T12:11:27;4.00;99.90
35668;DHT22;22158;59.280;17.806;2023-04-07T12:13:53;4.00;99.90
35668;DHT22;22158;59.280;17.806;2023-04-07T12:16:22;4.00;99.90
35668;DHT22;22158;59.280;17.806;2023-04-07T12:18:48;4.00;99.90
35668;DHT22;22158;59.280;17.806;2023-04-07T12:21:14;4.10;99.90
35668;DHT22;22158;59.280;17.806;2023-04-07T12:23:40;4.10;99.90
35668;DHT22;22158;59.280;17.806;2023-04-07T12:26:06;4.10;99.90
35668;DHT22;22158;59.280;17.806;2023-04-07T12:28:32;4.10;99.90
35668;DHT22;22158;59.280;17.806;2023-04-07T12:30:58;4.10;99.90
35668;DHT22;22158;59.280;17.806;2023-04-07T12:33:24;4.10;99.90
35668;DHT22;22158;59.280;17.806;2023-04-07T12:35:49;4.20;99.90
35668;DHT22;22158;59.280;17.806;2023-04-07T12:38:16;4.10;99.90
35668;DHT22;22158;59.280;17.806;2023-04-07T12:40:41;4.10;99.90
35668;DHT22;22158;59.280;17.806;2023-04-07T12:43:08;4.10;99.90
35668;DHT22;22158;59.280;17.806;2023-04-07T12:45:33;4.10;99.90
35668;DHT22;22158;59.280;17.806;2023-04-07T12:47:59;4.10;99.90
35668;DHT22;22158;59.280;17.806;2023-04-07T12:50:25;4.20;99.90
35668;DHT22;22158;59.280;17.806;2023-04-07T12:52:51;4.20;99.90
35668;DHT22;22158;59.280;17.806;2023-04-07T12:55:17;4.20;99.90
35668;DHT22;22158;59.280;17.806;2023-04-07T12:57:43;4.20;99.90
35668;DHT22;22158;59.280;17.806;2023-04-07T13:00:09;4.20;99.90
35668;DHT22;22158;59.280;17.806;2023-04-07T13:02:35;4.30;99.90
35668;DHT22;22158;59.280;17.806;2023-04-07T13:05:02;4.30;99.90
35668;DHT22;22158;59.280;17.806;2023-04-07T13:07:28;4.30;99.90
35668;DHT22;22158;59.280;17.806;2023-04-07T13:09:53;4.30;99.90
35668;DHT22;22158;59.280;17.806;2023-04-07T13:12:19;4.30;99.90
35668;DHT22;22158;59.280;17.806;2023-04-07T13:14:45;4.30;99.90
35668;DHT22;22158;59.280;17.806;2023-04-07T13:17:11;4.30;99.90
35668;DHT22;22158;59.280;17.806;2023-04-07T13:19:36;4.30;99.90
35668;DHT22;22158;59.280;17.806;2023-04-07T13:22:02;4.30;99.90
35668;DHT22;22158;59.280;17.806;2023-04-07T13:24:28;4.30;99.90
35668;DHT22;22158;59.280;17.806;2023-04-07T13:26:53;4.40;99.90
35668;DHT22;22158;59.280;17.806;2023-04-07T13:29:19;4.40;99.90
35668;DHT22;22158;59.280;17.806;2023-04-07T13:31:45;4.50;99.90
35668;DHT22;22158;59.280;17.806;2023-04-07T13:34:12;4.40;99.90
35668;DHT22;22158;59.280;17.806;2023-04-07T13:36:38;4.40;99.90
35668;DHT22;22158;59.280;17.806;2023-04-07T13:39:04;4.50;99.90
35668;DHT22;22158;59.280;17.806;2023-04-07T13:41:29;4.40;99.90
35668;DHT22;22158;59.280;17.806;2023-04-07T13:43:56;4.50;99.90
35668;DHT22;22158;59.280;17.806;2023-04-07T13:46:23;4.50;99.90
35668;DHT22;22158;59.280;17.806;2023-04-07T13:48:48;4.50;99.90
35668;DHT22;22158;59.280;17.806;2023-04-07T13:51:15;4.60;99.90
35668;DHT22;22158;59.280;17.806;2023-04-07T13:53:41;4.60;99.90
35668;DHT22;22158;59.280;17.806;2023-04-07T13:56:07;4.60;99.90
35668;DHT22;22158;59.280;17.806;2023-04-07T13:58:33;4.50;99.90
35668;DHT22;22158;59.280;17.806;2023-04-07T14:01:00;4.60;99.90
35668;DHT22;22158;59.280;17.806;2023-04-07T14:03:25;4.60;99.90
35668;DHT22;22158;59.280;17.806;2023-04-07T14:05:52;4.60;99.90
35668;DHT22;22158;59.280;17.806;2023-04-07T14:08:18;4.70;99.90
35668;DHT22;22158;59.280;17.806;2023-04-07T14:10:44;4.70;99.90
35668;DHT22;22158;59.280;17.806;2023-04-07T14:13:09;4.70;99.90
35668;DHT22;22158;59.280;17.806;2023-04-07T14:15:35;4.70;99.90
35668;DHT22;22158;59.280;17.806;2023-04-07T14:18:01;4.70;99.90
35668;DHT22;22158;59.280;17.806;2023-04-07T14:20:26;4.70;99.90
35668;DHT22;22158;59.280;17.806;2023-04-07T14:22:52;4.70;99.90
35668;DHT22;22158;59.280;17.806;2023-04-07T14:25:18;4.70;99.90
35668;DHT22;22158;59.280;17.806;2023-04-07T14:27:43;4.70;99.90
35668;DHT22;22158;59.280;17.806;2023-04-07T14:30:09;4.70;99.90
35668;DHT22;22158;59.280;17.806;2023-04-07T14:32:35;4.80;99.90
35668;DHT22;22158;59.280;17.806;2023-04-07T14:35:01;4.80;99.90
35668;DHT22;22158;59.280;17.806;2023-04-07T14:37:27;4.80;99.90
35668;DHT22;22158;59.280;17.806;2023-04-07T14:39:53;4.80;99.90
35668;DHT22;22158;59.280;17.806;2023-04-07T14:42:19;4.80;99.90
35668;DHT22;22158;59.280;17.806;2023-04-07T14:44:45;4.80;99.90
35668;DHT22;22158;59.280;17.806;2023-04-07T14:47:11;4.80;99.90
35668;DHT22;22158;59.280;17.806;2023-04-07T14:49:37;4.80;99.90
35668;DHT22;22158;59.280;17.806;2023-04-07T14:52:03;4.90;99.90
35668;DHT22;22158;59.280;17.806;2023-04-07T14:54:29;4.90;99.90
35668;DHT22;22158;59.280;17.806;2023-04-07T14:56:55;4.90;99.90
35668;DHT22;22158;59.280;17.806;2023-04-07T14:59:20;4.90;99.90
35668;DHT22;22158;59.280;17.806;2023-04-07T15:01:46;4.90;99.90
35668;DHT22;22158;59.280;17.806;2023-04-07T15:04:12;4.80;99.90
35668;DHT22;22158;59.280;17.806;2023-04-07T15:06:41;4.80;99.90
35668;DHT22;22158;59.280;17.806;2023-04-07T15:09:08;4.80;99.90
35668;DHT22;22158;59.280;17.806;2023-04-07T15:11:33;4.80;99.90
35668;DHT22;22158;59.280;17.806;2023-04-07T15:13:59;4.80;99.90
35668;DHT22;22158;59.280;17.806;2023-04-07T15:16:25;4.80;99.90
35668;DHT22;22158;59.280;17.806;2023-04-07T15:18:51;4.80;99.90
35668;DHT22;22158;59.280;17.806;2023-04-07T15:21:17;4.80;99.90
35668;DHT22;22158;59.280;17.806;2023-04-07T15:23:45;4.80;99.90
35668;DHT22;22158;59.280;17.806;2023-04-07T15:26:11;4.80;99.90
35668;DHT22;22158;59.280;17.806;2023-04-07T15:28:37;4.80;99.90
35668;DHT22;22158;59.280;17.806;2023-04-07T15:31:03;4.70;99.90
35668;DHT22;22158;59.280;17.806;2023-04-07T15:33:36;4.70;99.90
35668;DHT22;22158;59.280;17.806;2023-04-07T15:36:03;4.70;99.90
35668;DHT22;22158;59.280;17.806;2023-04-07T15:38:29;4.70;99.90
35668;DHT22;22158;59.280;17.806;2023-04-07T15:40:55;4.70;99.90
35668;DHT22;22158;59.280;17.806;2023-04-07T15:43:21;4.70;99.90
35668;DHT22;22158;59.280;17.806;2023-04-07T15:45:46;4.70;99.90
35668;DHT22;22158;59.280;17.806;2023-04-07T15:48:12;4.60;99.90
35668;DHT22;22158;59.280;17.806;2023-04-07T15:50:38;4.60;99.90
35668;DHT22;22158;59.280;17.806;2023-04-07T15:53:04;4.60;99.90
35668;DHT22;22158;59.280;17.806;2023-04-07T15:55:33;4.60;99.90
35668;DHT22;22158;59.280;17.806;2023-04-07T15:58:00;4.60;99.90
35668;DHT22;22158;59.280;17.806;2023-04-07T16:00:27;4.50;99.90
35668;DHT22;22158;59.280;17.806;2023-04-07T16:02:54;4.50;99.90
35668;DHT22;22158;59.280;17.806;2023-04-07T16:05:20;4.50;99.90
35668;DHT22;22158;59.280;17.806;2023-04-07T16:07:46;4.50;99.90
35668;DHT22;22158;59.280;17.806;2023-04-07T16:10:11;4.50;99.90
35668;DHT22;22158;59.280;17.806;2023-04-07T16:12:38;4.60;99.90
35668;DHT22;22158;59.280;17.806;2023-04-07T16:15:06;4.50;99.90
35668;DHT22;22158;59.280;17.806;2023-04-07T16:17:32;4.50;99.90
35668;DHT22;22158;59.280;17.806;2023-04-07T16:19:58;4.50;99.90
35668;DHT22;22158;59.280;17.806;2023-04-07T16:22:23;4.50;99.90
35668;DHT22;22158;59.280;17.806;2023-04-07T16:24:49;4.50;99.90
35668;DHT22;22158;59.280;17.806;2023-04-07T16:27:17;4.50;99.90
35668;DHT22;22158;59.280;17.806;2023-04-07T16:29:43;4.50;99.90
35668;DHT22;22158;59.280;17.806;2023-04-07T16:32:08;4.40;99.90
35668;DHT22;22158;59.280;17.806;2023-04-07T16:34:34;4.40;99.90
35668;DHT22;22158;59.280;17.806;2023-04-07T16:37:00;4.50;99.90
35668;DHT22;22158;59.280;17.806;2023-04-07T16:39:25;4.40;99.90
35668;DHT22;22158;59.280;17.806;2023-04-07T16:41:51;4.40;99.90
35668;DHT22;22158;59.280;17.806;2023-04-07T16:44:17;4.40;99.90
35668;DHT22;22158;59.280;17.806;2023-04-07T16:46:46;4.40;99.90
35668;DHT22;22158;59.280;17.806;2023-04-07T16:49:11;4.40;99.90
35668;DHT22;22158;59.280;17.806;2023-04-07T16:51:40;4.40;99.90
35668;DHT22;22158;59.280;17.806;2023-04-07T16:54:06;4.40;99.90
35668;DHT22;22158;59.280;17.806;2023-04-07T16:56:31;4.40;99.90
35668;DHT22;22158;59.280;17.806;2023-04-07T16:58:57;4.30;99.90
35668;DHT22;22158;59.280;17.806;2023-04-07T17:01:22;4.30;99.90
35668;DHT22;22158;59.280;17.806;2023-04-07T17:03:48;4.30;99.90
35668;DHT22;22158;59.280;17.806;2023-04-07T17:06:13;4.30;99.90
35668;DHT22;22158;59.280;17.806;2023-04-07T17:08:41;4.30;99.90
35668;DHT22;22158;59.280;17.806;2023-04-07T17:11:07;4.20;99.90
35668;DHT22;22158;59.280;17.806;2023-04-07T17:13:34;4.20;99.90
35668;DHT22;22158;59.280;17.806;2023-04-07T17:16:01;4.10;99.90
35668;DHT22;22158;59.280;17.806;2023-04-07T17:18:27;4.10;99.90
35668;DHT22;22158;59.280;17.806;2023-04-07T17:20:53;4.10;99.90
35668;DHT22;22158;59.280;17.806;2023-04-07T17:23:18;4.10;99.90
35668;DHT22;22158;59.280;17.806;2023-04-07T17:25:44;4.10;99.90
35668;DHT22;22158;59.280;17.806;2023-04-07T17:28:10;4.00;99.90
35668;DHT22;22158;59.280;17.806;2023-04-07T17:30:36;3.90;99.90
35668;DHT22;22158;59.280;17.806;2023-04-07T17:33:02;4.00;99.90
35668;DHT22;22158;59.280;17.806;2023-04-07T17:35:29;3.90;99.90
35668;DHT22;22158;59.280;17.806;2023-04-07T17:37:54;3.90;99.90
35668;DHT22;22158;59.280;17.806;2023-04-07T17:40:21;3.90;99.90
35668;DHT22;22158;59.280;17.806;2023-04-07T17:42:47;3.90;99.90
35668;DHT22;22158;59.280;17.806;2023-04-07T17:45:13;3.90;99.90
35668;DHT22;22158;59.280;17.806;2023-04-07T17:47:38;3.80;99.90
35668;DHT22;22158;59.280;17.806;2023-04-07T17:50:05;3.80;99.90
35668;DHT22;22158;59.280;17.806;2023-04-07T17:52:31;3.80;99.90
35668;DHT22;22158;59.280;17.806;2023-04-07T17:54:56;3.80;99.90
35668;DHT22;22158;59.280;17.806;2023-04-07T17:57:22;3.80;99.90
35668;DHT22;22158;59.280;17.806;2023-04-07T17:59:49;3.80;99.90
35668;DHT22;22158;59.280;17.806;2023-04-07T18:02:15;3.80;99.90
35668;DHT22;22158;59.280;17.806;2023-04-07T18:04:41;3.80;99.90
35668;DHT22;22158;59.280;17.806;2023-04-07T18:07:08;3.70;99.90
35668;DHT22;22158;59.280;17.806;2023-04-07T18:09:34;3.70;99.90
35668;DHT22;22158;59.280;17.806;2023-04-07T18:12:00;3.70;99.90
35668;DHT22;22158;59.280;17.806;2023-04-07T18:14:27;3.60;99.90
35668;DHT22;22158;59.280;17.806;2023-04-07T18:16:53;3.70;99.90
35668;DHT22;22158;59.280;17.806;2023-04-07T18:19:20;3.70;99.90
35668;DHT22;22158;59.280;17.806;2023-04-07T18:21:47;3.60;99.90
35668;DHT22;22158;59.280;17.806;2023-04-07T18:24:14;3.70;99.90
35668;DHT22;22158;59.280;17.806;2023-04-07T18:26:40;3.60;99.90
35668;DHT22;22158;59.280;17.806;2023-04-07T18:29:08;3.60;99.90
35668;DHT22;22158;59.280;17.806;2023-04-07T18:31:35;3.60;99.90
35668;DHT22;22158;59.280;17.806;2023-04-07T18:34:01;3.50;99.90
35668;DHT22;22158;59.280;17.806;2023-04-07T18:36:26;3.50;99.90
35668;DHT22;22158;59.280;17.806;2023-04-07T18:38:52;3.50;99.90
35668;DHT22;22158;59.280;17.806;2023-04-07T18:41:18;3.50;99.90
35668;DHT22;22158;59.280;17.806;2023-04-07T18:43:43;3.50;99.90
35668;DHT22;22158;59.280;17.806;2023-04-07T18:46:11;3.40;99.90
35668;DHT22;22158;59.280;17.806;2023-04-07T18:48:37;3.40;99.90
35668;DHT22;22158;59.280;17.806;2023-04-07T18:51:03;3.40;99.90
35668;DHT22;22158;59.280;17.806;2023-04-07T18:53:29;3.40;99.90
35668;DHT22;22158;59.280;17.806;2023-04-07T18:55:55;3.40;99.90
35668;DHT22;22158;59.280;17.806;2023-04-07T18:58:20;3.40;99.90
35668;DHT22;22158;59.280;17.806;2023-04-07T19:00:47;3.40;99.90
35668;DHT22;22158;59.280;17.806;2023-04-07T19:03:17;3.40;99.90
35668;DHT22;22158;59.280;17.806;2023-04-07T19:05:42;3.40;99.90
35668;DHT22;22158;59.280;17.806;2023-04-07T19:08:08;3.40;99.90
35668;DHT22;22158;59.280;17.806;2023-04-07T19:10:34;3.40;99.90
35668;DHT22;22158;59.280;17.806;2023-04-07T19:12:59;3.40;99.90
35668;DHT22;22158;59.280;17.806;2023-04-07T19:15:27;3.40;99.90
35668;DHT22;22158;59.280;17.806;2023-04-07T19:17:53;3.40;99.90
35668;DHT22;22158;59.280;17.806;2023-04-07T19:20:18;3.40;99.90
35668;DHT22;22158;59.280;17.806;2023-04-07T19:22:44;3.40;99.90
35668;DHT22;22158;59.280;17.806;2023-04-07T19:25:10;3.40;99.90
35668;DHT22;22158;59.280;17.806;2023-04-07T19:27:35;3.40;99.90
35668;DHT22;22158;59.280;17.806;2023-04-07T19:30:01;3.40;99.90
35668;DHT22;22158;59.280;17.806;2023-04-07T19:32:26;3.30;99.90
35668;DHT22;22158;59.280;17.806;2023-04-07T19:34:52;3.40;99.90
35668;DHT22;22158;59.280;17.806;2023-04-07T19:37:18;3.30;99.90
35668;DHT22;22158;59.280;17.806;2023-04-07T19:39:45;3.30;99.90
35668;DHT22;22158;59.280;17.806;2023-04-07T19:42:13;3.30;99.90
35668;DHT22;22158;59.280;17.806;2023-04-07T19:44:40;3.30;99.90
35668;DHT22;22158;59.280;17.806;2023-04-07T19:47:05;3.30;99.90
35668;DHT22;22158;59.280;17.806;2023-04-07T19:49:32;3.30;99.90
35668;DHT22;22158;59.280;17.806;2023-04-07T19:51:57;3.30;99.90
35668;DHT22;22158;59.280;17.806;2023-04-07T19:54:23;3.30;99.90
35668;DHT22;22158;59.280;17.806;2023-04-07T19:56:48;3.20;99.90
35668;DHT22;22158;59.280;17.806;2023-04-07T19:59:14;3.20;99.90
35668;DHT22;22158;59.280;17.806;2023-04-07T20:01:40;3.20;99.90
35668;DHT22;22158;59.280;17.806;2023-04-07T20:04:05;3.20;99.90
35668;DHT22;22158;59.280;17.806;2023-04-07T20:06:31;3.20;99.90
35668;DHT22;22158;59.280;17.806;2023-04-07T20:08:57;3.20;99.90
35668;DHT22;22158;59.280;17.806;2023-04-07T20:11:23;3.20;99.90
35668;DHT22;22158;59.280;17.806;2023-04-07T20:13:48;3.20;99.90
35668;DHT22;22158;59.280;17.806;2023-04-07T20:16:14;3.20;99.90
35668;DHT22;22158;59.280;17.806;2023-04-07T20:18:43;3.10;99.90
35668;DHT22;22158;59.280;17.806;2023-04-07T20:21:08;3.10;99.90
35668;DHT22;22158;59.280;17.806;2023-04-07T20:23:34;3.10;99.90
35668;DHT22;22158;59.280;17.806;2023-04-07T20:26:01;3.10;99.90
35668;DHT22;22158;59.280;17.806;2023-04-07T20:28:26;3.10;99.90
35668;DHT22;22158;59.280;17.806;2023-04-07T20:30:52;3.10;99.90
35668;DHT22;22158;59.280;17.806;2023-04-07T20:33:18;3.10;99.90
35668;DHT22;22158;59.280;17.806;2023-04-07T20:35:44;3.10;99.90
35668;DHT22;22158;59.280;17.806;2023-04-07T20:38:10;3.20;99.90